createdAt,value
2019-05-15T00:03:08.912Z,0.70
2019-05-15T00:07:12.348Z,0.90
2019-05-15T00:11:15.876Z,0.78
2019-05-15T00:15:19.870Z,0.80
2019-05-15T00:19:23.397Z,2.05
2019-05-15T00:23:29.151Z,0.60
2019-05-15T00:27:32.182Z,0.60
2019-05-15T00:31:35.668Z,0.78
2019-05-15T00:35:39.782Z,0.80
2019-05-15T00:39:43.516Z,0.85
2019-05-15T00:43:49.356Z,1.10
2019-05-15T00:47:52.357Z,0.47
2019-05-15T00:51:56.085Z,0.50
2019-05-15T00:55:59.566Z,0.90
2019-05-15T01:00:03.039Z,0.78
2019-05-15T01:04:08.039Z,0.78
2019-05-15T01:08:11.587Z,0.68
2019-05-15T01:12:15.071Z,0.62
2019-05-15T01:16:18.783Z,0.98
2019-05-15T01:20:22.349Z,0.82
2019-05-15T01:24:28.136Z,0.80
2019-05-15T01:28:31.265Z,0.70
2019-05-15T01:32:34.979Z,0.50
2019-05-15T01:36:38.466Z,0.40
2019-05-15T01:40:41.942Z,0.80
2019-05-15T01:44:48.406Z,0.80
2019-05-15T01:48:51.751Z,0.70
2019-05-15T01:52:55.350Z,1.13
2019-05-15T01:56:58.939Z,0.62
2019-05-15T02:01:02.560Z,0.70
2019-05-15T02:05:08.477Z,0.90
2019-05-15T02:09:12.163Z,0.88
2019-05-15T02:13:15.648Z,0.80
2019-05-15T02:17:19.349Z,0.53
2019-05-15T02:21:22.952Z,0.78
2019-05-15T02:25:28.022Z,0.60
2019-05-15T02:29:31.678Z,0.70
2019-05-15T02:33:35.362Z,1.00
2019-05-15T02:37:40.925Z,0.80
2019-05-15T02:41:44.542Z,0.93
2019-05-15T02:45:50.780Z,0.80
2019-05-15T02:49:53.150Z,0.98
2019-05-15T02:53:58.601Z,0.85
2019-05-15T02:58:01.809Z,0.70
2019-05-15T03:02:05.242Z,0.68
2019-05-15T03:06:09.942Z,0.90
2019-05-15T03:10:16.073Z,0.98
2019-05-15T03:14:21.494Z,1.07
2019-05-15T03:18:25.259Z,0.85
2019-05-15T03:22:29.559Z,1.02
2019-05-15T03:26:33.426Z,0.80
2019-05-15T03:31:06.947Z,1.02
2019-05-15T03:34:47.359Z,1.10
2019-05-15T03:38:49.933Z,0.75
2019-05-15T03:42:53.047Z,0.98
2019-05-15T03:46:59.466Z,0.57
2019-05-15T03:51:01.710Z,0.60
2019-05-15T03:55:10.580Z,0.93
2019-05-15T03:59:12.936Z,1.05
2019-05-15T04:03:19.549Z,0.75
2019-05-15T04:07:21.646Z,1.00
2019-05-15T04:11:25.394Z,0.75
2019-05-15T04:15:30.118Z,0.60
2019-05-15T04:19:33.785Z,0.90
2019-05-15T04:23:39.202Z,0.85
2019-05-15T04:27:44.013Z,0.95
2019-05-15T04:31:56.392Z,1.20
2019-05-15T04:35:52.627Z,1.15
2019-05-15T04:39:56.041Z,0.80
2019-05-15T04:44:00.002Z,1.10
2019-05-15T04:48:03.714Z,1.30
2019-05-15T04:52:10.195Z,1.42
2019-05-15T04:56:12.332Z,1.40
2019-05-15T05:00:19.835Z,1.45
2019-05-15T05:04:23.797Z,1.30
2019-05-15T05:08:28.950Z,1.82
2019-05-15T05:12:32.630Z,1.47
2019-05-15T05:16:38.980Z,1.77
2019-05-15T05:20:41.889Z,1.22
2019-05-15T05:24:47.812Z,1.75
2019-05-15T05:28:51.614Z,1.15
2019-05-15T05:32:55.044Z,1.37
2019-05-15T05:36:59.028Z,1.72
2019-05-15T05:41:02.466Z,1.22
2019-05-15T05:45:08.984Z,1.17
2019-05-15T05:49:11.937Z,1.40
2019-05-15T05:53:15.615Z,1.82
2019-05-15T05:57:19.556Z,1.60
2019-05-15T06:01:23.017Z,1.20
2019-05-15T06:05:28.107Z,1.85
2019-05-15T06:09:31.596Z,1.42
2019-05-15T06:13:35.014Z,1.72
2019-05-15T06:17:39.218Z,1.20
2019-05-15T06:21:54.702Z,1.35
2019-05-15T06:25:48.696Z,1.47
2019-05-15T06:29:52.147Z,1.57
2019-05-15T06:33:57.939Z,1.07
2019-05-15T06:38:00.758Z,1.40
2019-05-15T06:42:04.263Z,0.78
2019-05-15T06:46:09.128Z,0.85
2019-05-15T06:50:13.816Z,0.90
2019-05-15T06:54:18.913Z,0.70
2019-05-15T06:58:25.167Z,0.68
2019-05-15T07:02:28.516Z,0.53
2019-05-15T07:06:32.128Z,0.60
2019-05-15T07:10:37.741Z,0.50
2019-05-15T07:14:41.077Z,0.53
2019-05-15T07:18:45.332Z,0.70
2019-05-15T07:22:49.198Z,0.40
2019-05-15T07:26:53.022Z,0.55
2019-05-15T07:30:58.392Z,0.60
2019-05-15T07:35:02.006Z,0.60
2019-05-15T07:39:09.235Z,0.37
2019-05-15T07:43:12.716Z,0.50
2019-05-15T07:47:19.138Z,0.70
2019-05-15T07:51:22.610Z,0.80
2019-05-15T07:55:26.062Z,0.40
2019-05-15T07:59:30.036Z,0.60
2019-05-15T08:03:34.007Z,0.40
2019-05-15T08:07:38.966Z,0.50
2019-05-15T08:11:42.547Z,0.70
2019-05-15T08:15:48.475Z,0.70
2019-05-15T08:19:51.193Z,0.60
2019-05-15T08:23:54.623Z,0.70
2019-05-15T08:27:58.773Z,0.60
2019-05-15T08:32:02.879Z,0.68
2019-05-15T08:36:08.440Z,0.70
2019-05-15T08:40:12.611Z,0.88
2019-05-15T08:44:18.430Z,0.72
2019-05-15T08:48:21.395Z,0.90
2019-05-15T08:52:24.825Z,0.72
2019-05-15T08:56:28.878Z,0.55
2019-05-15T09:00:33.028Z,0.70
2019-05-15T09:04:38.707Z,0.40
2019-05-15T09:08:41.677Z,0.62
2019-05-15T09:12:45.176Z,0.35
2019-05-15T09:16:55.007Z,0.50
2019-05-15T09:20:59.386Z,0.47
2019-05-15T09:25:03.226Z,0.50
2019-05-15T09:29:09.269Z,0.57
2019-05-15T09:33:11.977Z,0.40
2019-05-15T09:37:17.905Z,0.70
2019-05-15T09:41:20.613Z,0.88
2019-05-15T09:45:24.682Z,0.60
2019-05-15T09:49:29.824Z,0.98
2019-05-15T09:53:33.539Z,0.82
2019-05-15T09:57:38.622Z,0.55
2019-05-15T10:01:42.262Z,0.40
2019-05-15T10:05:48.315Z,0.45
2019-05-15T10:09:52.536Z,0.53
2019-05-15T10:13:58.375Z,0.65
2019-05-15T10:18:01.201Z,0.42
2019-05-15T10:22:05.084Z,0.47
2019-05-15T10:26:13.838Z,0.50
2019-05-15T10:30:14.717Z,0.70
2019-05-15T10:34:18.576Z,0.40
2019-05-15T10:38:22.278Z,0.40
2019-05-15T10:42:28.765Z,0.30
2019-05-15T10:46:31.541Z,0.80
2019-05-15T10:50:34.989Z,0.60
2019-05-15T10:54:38.796Z,0.70
2019-05-15T10:58:42.338Z,0.68
2019-05-15T11:02:46.114Z,0.65
2019-05-15T11:06:50.534Z,0.60
2019-05-15T11:10:53.978Z,0.50
2019-05-15T11:14:57.762Z,0.45
2019-05-15T11:19:01.216Z,0.62
2019-05-15T11:23:04.924Z,0.68
2019-05-15T11:27:09.996Z,0.50
2019-05-15T11:31:13.602Z,0.47
2019-05-15T11:35:18.695Z,0.47
2019-05-15T11:39:22.405Z,0.40
2019-05-15T11:43:28.892Z,0.35
2019-05-15T11:47:30.995Z,0.60
2019-05-15T11:51:34.502Z,0.80
2019-05-15T11:55:38.714Z,0.25
2019-05-15T11:59:45.529Z,0.68
2019-05-15T12:03:48.257Z,0.50
2019-05-15T12:07:51.673Z,0.60
2019-05-15T12:11:55.207Z,0.50
2019-05-15T12:15:58.999Z,0.40
2019-05-15T12:20:06.716Z,0.60
2019-05-15T12:24:09.096Z,0.40
2019-05-15T12:28:13.170Z,0.50
2019-05-15T12:32:28.439Z,0.90
2019-05-15T12:36:45.309Z,0.40
2019-05-15T13:00:54.502Z,0.60
2019-05-15T13:04:57.935Z,0.75
2019-05-15T13:09:01.828Z,0.30
2019-05-15T13:13:05.731Z,0.88
2019-05-15T13:17:09.923Z,0.60
2019-05-15T13:21:13.569Z,0.60
2019-05-15T13:25:18.850Z,0.40
2019-05-15T13:29:22.712Z,0.50
2019-05-15T13:33:26.149Z,0.65
2019-05-15T13:37:30.991Z,0.40
2019-05-15T13:41:34.892Z,0.72
2019-05-15T13:45:39.015Z,1.27
2019-05-15T13:49:42.693Z,1.05
2019-05-15T13:53:46.114Z,0.78
2019-05-15T13:57:49.666Z,0.33
2019-05-15T14:01:53.170Z,0.42
2019-05-15T14:05:58.315Z,0.50
2019-05-15T14:10:01.820Z,0.60
2019-05-15T14:14:05.437Z,0.45
2019-05-15T14:18:10.785Z,0.50
2019-05-15T14:22:14.301Z,0.55
2019-05-15T14:26:20.142Z,0.60
2019-05-15T14:30:22.897Z,0.62
2019-05-15T14:34:28.918Z,0.55
2019-05-15T14:38:31.800Z,0.70
2019-05-15T14:42:35.215Z,0.68
2019-05-15T14:46:38.644Z,0.90
2019-05-15T14:50:42.097Z,1.27
2019-05-15T14:54:45.829Z,0.50
2019-05-15T14:58:49.795Z,0.50
2019-05-15T15:02:53.216Z,0.78
2019-05-15T15:06:57.973Z,0.45
2019-05-15T15:11:01.898Z,0.82
2019-05-15T15:15:10.137Z,0.40
2019-05-15T15:19:11.903Z,0.50
2019-05-15T15:23:15.338Z,0.42
2019-05-15T15:27:19.497Z,0.33
2019-05-15T15:31:22.930Z,0.40
2019-05-15T15:35:28.405Z,0.25
2019-05-15T15:39:31.795Z,0.62
2019-05-15T15:43:38.598Z,0.33
2019-05-15T15:47:41.362Z,0.30
2019-05-15T15:51:45.199Z,0.30
2019-05-15T15:55:49.023Z,0.20
2019-05-15T15:59:53.486Z,0.40
2019-05-15T16:03:56.867Z,0.40
2019-05-15T16:08:00.373Z,0.60
2019-05-15T16:12:03.819Z,0.50
2019-05-15T16:16:08.599Z,0.88
2019-05-15T16:20:13.396Z,0.40
2019-05-15T16:24:20.756Z,0.47
2019-05-15T16:28:22.132Z,0.47
2019-05-15T16:32:25.842Z,0.33
2019-05-15T16:36:30.513Z,0.50
2019-05-15T16:40:33.918Z,0.45
2019-05-15T16:44:38.465Z,0.40
2019-05-15T16:48:45.224Z,0.30
2019-05-15T16:52:49.167Z,0.40
2019-05-15T16:56:53.431Z,0.72
2019-05-15T17:00:58.547Z,0.28
2019-05-15T17:05:02.250Z,0.40
2019-05-15T17:09:20.875Z,0.50
2019-05-15T17:13:13.668Z,0.68
2019-05-15T17:17:18.301Z,0.42
2019-05-15T17:21:22.342Z,0.28
2019-05-15T17:25:25.802Z,0.50
2019-05-15T17:29:29.311Z,0.55
2019-05-15T17:33:33.858Z,0.50
2019-05-15T17:37:38.041Z,0.50
2019-05-15T17:41:42.077Z,0.65
2019-05-15T17:45:48.137Z,0.60
2019-05-15T19:44:59.477Z,0.80
2019-05-15T19:49:02.910Z,0.62
2019-05-15T19:53:08.202Z,1.02
2019-05-15T19:57:12.050Z,0.50
2019-05-15T20:01:15.603Z,0.40
2019-05-15T20:05:19.126Z,0.68
2019-05-15T20:09:24.859Z,0.60
2019-05-15T20:13:29.141Z,0.93
2019-05-15T20:27:40.252Z,0.30
2019-05-15T20:31:44.327Z,0.28
2019-05-15T20:35:48.196Z,0.40
2019-05-15T20:39:51.954Z,0.78
2019-05-15T20:43:58.265Z,0.62
2019-05-15T20:48:03.420Z,0.33
2019-05-15T20:52:06.951Z,0.50
2019-05-15T20:56:10.685Z,0.35
2019-05-15T21:00:18.941Z,0.42
2019-05-15T21:04:23.592Z,0.42
2019-05-15T21:08:28.879Z,0.30
2019-05-15T21:12:32.429Z,0.40
2019-05-15T21:16:36.045Z,1.70
2019-05-15T21:20:39.541Z,0.30
2019-05-15T21:24:43.009Z,1.17
2019-05-15T21:28:48.173Z,0.80
2019-05-15T21:32:52.138Z,0.33
2019-05-15T21:36:55.582Z,0.50
2019-05-15T21:40:59.322Z,0.70
2019-05-15T21:45:02.889Z,0.57
2019-05-15T21:49:08.860Z,0.47
2019-05-15T21:53:12.622Z,0.40
2019-05-15T21:57:32.312Z,0.50
2019-05-15T22:01:23.592Z,0.40
2019-05-15T22:05:27.030Z,0.40
2019-05-15T22:09:32.361Z,0.57
2019-05-15T22:13:39.076Z,0.70
2019-05-15T22:17:42.741Z,0.60
2019-05-15T22:21:49.091Z,0.60
2019-05-15T22:25:53.083Z,0.82
2019-05-15T22:29:58.670Z,0.45
2019-05-15T22:34:02.659Z,0.70
2019-05-15T22:38:08.894Z,0.42
2019-05-15T22:42:13.455Z,0.70
2019-05-15T22:46:18.667Z,0.40
2019-05-15T22:50:22.331Z,0.65
2019-05-15T22:54:27.690Z,0.33
2019-05-15T22:58:31.184Z,0.50
2019-05-15T23:02:34.609Z,0.65
2019-05-15T23:06:39.366Z,1.57
2019-05-15T23:10:43.386Z,0.50
2019-05-15T23:14:48.600Z,0.40
2019-05-15T23:18:52.226Z,0.75
2019-05-15T23:22:58.198Z,0.55
2019-05-15T23:27:02.100Z,0.70
2019-05-15T23:31:08.161Z,0.65
2019-05-15T23:35:11.714Z,0.50
2019-05-15T23:39:18.228Z,0.60
2019-05-15T23:43:21.774Z,0.45
2019-05-15T23:47:25.707Z,0.40
2019-05-15T23:51:29.576Z,0.40
2019-05-15T23:55:33.163Z,0.70
2019-05-15T23:59:38.419Z,0.60
